LXP341 SCFA-SCEL
Flight info
| Callsign | LXP341 |
|---|---|
| Flight time | 1h 24m |
| Altitude | 35000 |
| Route | UKATO3A UKATO UQ803 SIMOK SIMOK7B |
| Aircraft | A321/M-SDE3FGHIRWY/LB1 |
Departure
| Time | 2026-04-22 23:03 |
|---|---|
| Airport | Andrés Sabella Gálvez International Airport (SCFA) |
Arrival
| Time | 2026-04-23 00:28 |
|---|---|
| Airport | Comodoro Arturo Merino Benítez International Airport (SCEL) |
| Time | Latitude | Longitude | Altitude | Speed | Heading |
|---|---|---|---|---|---|
| 2026-04-22 22:36 | -23.44921 | -70.44176 | 366 ft | 0 kts | 96° |
| 2026-04-22 22:53 | -23.44920 | -70.44181 | 366 ft | 4 kts | 95° |
| 2026-04-22 22:54 | -23.44920 | -70.44210 | 365 ft | 4 kts | 83° |
| 2026-04-22 22:54 | -23.44926 | -70.44238 | 371 ft | 4 kts | 64° |
| 2026-04-22 22:54 | -23.44941 | -70.44260 | 369 ft | 4 kts | 28° |
| 2026-04-22 22:54 | -23.44952 | -70.44266 | 366 ft | 0 kts | 7° |
| 2026-04-22 22:57 | -23.44941 | -70.44264 | 366 ft | 6 kts | 7° |
| 2026-04-22 22:57 | -23.44863 | -70.44254 | 371 ft | 16 kts | 5° |
| 2026-04-22 22:57 | -23.44774 | -70.44275 | 367 ft | 12 kts | 343° |
| 2026-04-22 22:58 | -23.44704 | -70.44297 | 369 ft | 10 kts | 344° |
| 2026-04-22 22:58 | -23.44620 | -70.44322 | 371 ft | 16 kts | 346° |
| 2026-04-22 22:58 | -23.44489 | -70.44318 | 375 ft | 22 kts | 7° |
| 2026-04-22 22:58 | -23.44349 | -70.44301 | 380 ft | 18 kts | 6° |
| 2026-04-22 22:59 | -23.44240 | -70.44287 | 385 ft | 13 kts | 6° |
| 2026-04-22 22:59 | -23.44158 | -70.44277 | 390 ft | 14 kts | 6° |
| 2026-04-22 22:59 | -23.44035 | -70.44263 | 396 ft | 21 kts | 6° |
| 2026-04-22 22:59 | -23.43873 | -70.44243 | 406 ft | 23 kts | 6° |
| 2026-04-22 23:00 | -23.43775 | -70.44231 | 412 ft | 19 kts | 6° |
| 2026-04-22 23:00 | -23.43625 | -70.44213 | 418 ft | 17 kts | 6° |
| 2026-04-22 23:00 | -23.43495 | -70.44197 | 430 ft | 21 kts | 6° |
| 2026-04-22 23:00 | -23.43413 | -70.44187 | 425 ft | 13 kts | 6° |
| 2026-04-22 23:01 | -23.43356 | -70.44205 | 430 ft | 7 kts | 326° |
| 2026-04-22 23:01 | -23.43329 | -70.44227 | 441 ft | 3 kts | 321° |
| 2026-04-22 23:01 | -23.43324 | -70.44232 | 434 ft | 2 kts | 321° |
| 2026-04-22 23:01 | -23.43295 | -70.44260 | 430 ft | 9 kts | 317° |
| 2026-04-22 23:02 | -23.43280 | -70.44325 | 443 ft | 10 kts | 246° |
| 2026-04-22 23:02 | -23.43325 | -70.44366 | 432 ft | 7 kts | 195° |
| 2026-04-22 23:02 | -23.43340 | -70.44368 | 435 ft | 0 kts | 186° |
| 2026-04-22 23:02 | -23.43524 | -70.44392 | 418 ft | 64 kts | 187° |
| 2026-04-22 23:03 | -23.44191 | -70.44474 | 388 ft | 126 kts | 186° |
| 2026-04-22 23:03 | -23.45206 | -70.44600 | 515 ft | 155 kts | 186° |
| 2026-04-22 23:03 | -23.46266 | -70.44716 | 1148 ft | 155 kts | 183° |
| 2026-04-22 23:03 | -23.47382 | -70.44653 | 1493 ft | 170 kts | 172° |
| 2026-04-22 23:04 | -23.48622 | -70.44409 | 1707 ft | 193 kts | 170° |
| 2026-04-22 23:04 | -23.50012 | -70.44110 | 1886 ft | 215 kts | 169° |
| 2026-04-22 23:04 | -23.51565 | -70.43782 | 2067 ft | 241 kts | 170° |
| 2026-04-22 23:04 | -23.53271 | -70.43434 | 2606 ft | 255 kts | 170° |
| 2026-04-22 23:05 | -23.55033 | -70.43084 | 3391 ft | 260 kts | 171° |
| 2026-04-22 23:05 | -23.56825 | -70.42736 | 4178 ft | 263 kts | 172° |
| 2026-04-22 23:05 | -23.58640 | -70.42389 | 4918 ft | 267 kts | 173° |
| 2026-04-22 23:05 | -23.60481 | -70.42042 | 5573 ft | 270 kts | 172° |
| 2026-04-22 23:06 | -23.62329 | -70.41698 | 6191 ft | 274 kts | 172° |
| 2026-04-22 23:06 | -23.64220 | -70.41346 | 6772 ft | 278 kts | 172° |
| 2026-04-22 23:06 | -23.66141 | -70.40986 | 7347 ft | 281 kts | 171° |
| 2026-04-22 23:06 | -23.68082 | -70.40625 | 7945 ft | 284 kts | 171° |
| 2026-04-22 23:07 | -23.70044 | -70.40263 | 8547 ft | 287 kts | 171° |
| 2026-04-22 23:07 | -23.72024 | -70.39897 | 9158 ft | 290 kts | 171° |
| 2026-04-22 23:07 | -23.74019 | -70.39524 | 9758 ft | 293 kts | 170° |
| 2026-04-22 23:07 | -23.76053 | -70.39143 | 10167 ft | 304 kts | 170° |
| 2026-04-22 23:08 | -23.78205 | -70.38743 | 10281 ft | 323 kts | 170° |
| 2026-04-22 23:08 | -23.80506 | -70.38438 | 10404 ft | 342 kts | 178° |
| 2026-04-22 23:08 | -23.82914 | -70.38363 | 10765 ft | 350 kts | 178° |
| 2026-04-22 23:08 | -23.85366 | -70.38285 | 11293 ft | 354 kts | 178° |
| 2026-04-22 23:09 | -23.87839 | -70.38205 | 11860 ft | 357 kts | 178° |
| 2026-04-22 23:09 | -23.90333 | -70.38123 | 12437 ft | 360 kts | 178° |
| 2026-04-22 23:09 | -23.92846 | -70.38037 | 13018 ft | 363 kts | 178° |
| 2026-04-22 23:09 | -23.95380 | -70.37949 | 13602 ft | 366 kts | 178° |
| 2026-04-22 23:10 | -23.97936 | -70.37862 | 14133 ft | 369 kts | 178° |
| 2026-04-22 23:10 | -24.00485 | -70.37776 | 14613 ft | 374 kts | 179° |
| 2026-04-22 23:10 | -24.03097 | -70.37688 | 15104 ft | 378 kts | 180° |
| 2026-04-22 23:10 | -24.05751 | -70.37600 | 15509 ft | 384 kts | 180° |
| 2026-04-22 23:11 | -24.08431 | -70.37513 | 16020 ft | 387 kts | 180° |
| 2026-04-22 23:11 | -24.11134 | -70.37425 | 16523 ft | 390 kts | 180° |
| 2026-04-22 23:11 | -24.13860 | -70.37336 | 16991 ft | 394 kts | 180° |
| 2026-04-22 23:11 | -24.16608 | -70.37247 | 17449 ft | 397 kts | 180° |
| 2026-04-22 23:12 | -24.19377 | -70.37158 | 17899 ft | 401 kts | 180° |
| 2026-04-22 23:12 | -24.22179 | -70.37066 | 18328 ft | 405 kts | 180° |
| 2026-04-22 23:12 | -24.25008 | -70.36973 | 18706 ft | 408 kts | 180° |
| 2026-04-22 23:12 | -24.27867 | -70.36878 | 19073 ft | 412 kts | 181° |
| 2026-04-22 23:13 | -24.30737 | -70.36780 | 19439 ft | 415 kts | 181° |
| 2026-04-22 23:13 | -24.33638 | -70.36681 | 19820 ft | 419 kts | 181° |
| 2026-04-22 23:13 | -24.36561 | -70.36584 | 20187 ft | 422 kts | 181° |
| 2026-04-22 23:13 | -24.39509 | -70.36487 | 20541 ft | 426 kts | 181° |
| 2026-04-22 23:14 | -24.42480 | -70.36388 | 20922 ft | 429 kts | 182° |
| 2026-04-22 23:14 | -24.45475 | -70.36287 | 21287 ft | 432 kts | 182° |
| 2026-04-22 23:14 | -24.48492 | -70.36186 | 21651 ft | 435 kts | 182° |
| 2026-04-22 23:14 | -24.51532 | -70.36086 | 22014 ft | 439 kts | 182° |
| 2026-04-22 23:15 | -24.54594 | -70.35985 | 22360 ft | 442 kts | 182° |
| 2026-04-22 23:15 | -24.57678 | -70.35881 | 22719 ft | 445 kts | 182° |
| 2026-04-22 23:15 | -24.60785 | -70.35774 | 23059 ft | 448 kts | 183° |
| 2026-04-22 23:15 | -24.63870 | -70.35667 | 23391 ft | 451 kts | 183° |
| 2026-04-22 23:16 | -24.67021 | -70.35559 | 23703 ft | 454 kts | 183° |
| 2026-04-22 23:16 | -24.70226 | -70.35451 | 24002 ft | 457 kts | 183° |
| 2026-04-22 23:16 | -24.73372 | -70.35345 | 24304 ft | 460 kts | 184° |
| 2026-04-22 23:16 | -24.76585 | -70.35236 | 24598 ft | 462 kts | 184° |
| 2026-04-22 23:17 | -24.79807 | -70.35127 | 24899 ft | 464 kts | 184° |
| 2026-04-22 23:17 | -24.83037 | -70.35020 | 25190 ft | 467 kts | 184° |
| 2026-04-22 23:17 | -24.86291 | -70.34910 | 25488 ft | 469 kts | 184° |
| 2026-04-22 23:17 | -24.89562 | -70.34800 | 25771 ft | 471 kts | 184° |
| 2026-04-22 23:18 | -24.92845 | -70.34692 | 26082 ft | 473 kts | 184° |
| 2026-04-22 23:18 | -24.96141 | -70.34585 | 26379 ft | 475 kts | 184° |
| 2026-04-22 23:18 | -24.99455 | -70.34478 | 26677 ft | 478 kts | 184° |
| 2026-04-22 23:18 | -25.02787 | -70.34366 | 26901 ft | 481 kts | 184° |
| 2026-04-22 23:19 | -25.06137 | -70.34254 | 27206 ft | 482 kts | 184° |
| 2026-04-22 23:19 | -25.09500 | -70.34140 | 27485 ft | 485 kts | 185° |
| 2026-04-22 23:19 | -25.12878 | -70.34026 | 27771 ft | 487 kts | 185° |
| 2026-04-22 23:19 | -25.16269 | -70.33912 | 28063 ft | 489 kts | 185° |
| 2026-04-22 23:20 | -25.19676 | -70.33795 | 28330 ft | 491 kts | 185° |
| 2026-04-22 23:20 | -25.23096 | -70.33677 | 28609 ft | 493 kts | 185° |
| 2026-04-22 23:20 | -25.26531 | -70.33558 | 28864 ft | 495 kts | 185° |
| 2026-04-22 23:20 | -25.29977 | -70.33439 | 29112 ft | 497 kts | 185° |
| 2026-04-22 23:21 | -25.33442 | -70.33322 | 29363 ft | 499 kts | 185° |
| 2026-04-22 23:21 | -25.36875 | -70.33210 | 29593 ft | 501 kts | 185° |
| 2026-04-22 23:21 | -25.40369 | -70.33093 | 29812 ft | 503 kts | 185° |
| 2026-04-22 23:21 | -25.43877 | -70.32972 | 30056 ft | 505 kts | 185° |
| 2026-04-22 23:22 | -25.47399 | -70.32850 | 30259 ft | 507 kts | 185° |
| 2026-04-22 23:22 | -25.50930 | -70.32727 | 30560 ft | 507 kts | 185° |
| 2026-04-22 23:22 | -25.54461 | -70.32608 | 30825 ft | 508 kts | 185° |
| 2026-04-22 23:22 | -25.57994 | -70.32494 | 31092 ft | 508 kts | 185° |
| 2026-04-22 23:23 | -25.61531 | -70.32379 | 31361 ft | 509 kts | 185° |
| 2026-04-22 23:23 | -25.65070 | -70.32256 | 31634 ft | 509 kts | 185° |
| 2026-04-22 23:23 | -25.68606 | -70.32129 | 31904 ft | 510 kts | 185° |
| 2026-04-22 23:23 | -25.72151 | -70.32004 | 32170 ft | 510 kts | 186° |
| 2026-04-22 23:24 | -25.75699 | -70.31886 | 32435 ft | 510 kts | 186° |
| 2026-04-22 23:24 | -25.79254 | -70.31769 | 32699 ft | 511 kts | 186° |
| 2026-04-22 23:24 | -25.82807 | -70.31651 | 33006 ft | 511 kts | 186° |
| 2026-04-22 23:24 | -25.86362 | -70.31530 | 33267 ft | 511 kts | 186° |
| 2026-04-22 23:25 | -25.89920 | -70.31407 | 33536 ft | 512 kts | 186° |
| 2026-04-22 23:25 | -25.93434 | -70.31286 | 33781 ft | 512 kts | 186° |
| 2026-04-22 23:25 | -25.97040 | -70.31164 | 34006 ft | 513 kts | 186° |
| 2026-04-22 23:25 | -26.00610 | -70.31044 | 34247 ft | 513 kts | 186° |
| 2026-04-22 23:26 | -26.04137 | -70.30924 | 34493 ft | 513 kts | 186° |
| 2026-04-22 23:26 | -26.07685 | -70.30915 | 34738 ft | 505 kts | 193° |
| 2026-04-22 23:26 | -26.11168 | -70.31221 | 34987 ft | 503 kts | 194° |
| 2026-04-22 23:26 | -26.14646 | -70.31538 | 35059 ft | 499 kts | 194° |
| 2026-04-22 23:27 | -26.21532 | -70.32169 | 35074 ft | 495 kts | 194° |
| 2026-04-22 23:27 | -26.28391 | -70.32810 | 35073 ft | 494 kts | 194° |
| 2026-04-22 23:28 | -26.35247 | -70.33450 | 35071 ft | 494 kts | 194° |
| 2026-04-22 23:28 | -26.42101 | -70.34081 | 35072 ft | 493 kts | 194° |
| 2026-04-22 23:29 | -26.48941 | -70.34701 | 35073 ft | 493 kts | 194° |
| 2026-04-22 23:29 | -26.55773 | -70.35329 | 35076 ft | 493 kts | 194° |
| 2026-04-22 23:30 | -26.62578 | -70.35966 | 35076 ft | 493 kts | 194° |
| 2026-04-22 23:30 | -26.69411 | -70.36601 | 35113 ft | 493 kts | 194° |
| 2026-04-22 23:31 | -26.76254 | -70.37231 | 35104 ft | 493 kts | 194° |
| 2026-04-22 23:31 | -26.83092 | -70.37859 | 35097 ft | 493 kts | 194° |
| 2026-04-22 23:32 | -26.89921 | -70.38496 | 35090 ft | 492 kts | 194° |
| 2026-04-22 23:32 | -26.96743 | -70.39138 | 35086 ft | 492 kts | 194° |
| 2026-04-22 23:33 | -27.03566 | -70.39767 | 35092 ft | 492 kts | 194° |
| 2026-04-22 23:33 | -27.10392 | -70.40399 | 35093 ft | 492 kts | 194° |
| 2026-04-22 23:34 | -27.17176 | -70.41032 | 35091 ft | 492 kts | 194° |
| 2026-04-22 23:34 | -27.23998 | -70.41679 | 35091 ft | 492 kts | 194° |
| 2026-04-22 23:35 | -27.30827 | -70.42322 | 35110 ft | 492 kts | 194° |
| 2026-04-22 23:35 | -27.37653 | -70.42959 | 35103 ft | 492 kts | 194° |
| 2026-04-22 23:36 | -27.44471 | -70.43599 | 35105 ft | 491 kts | 194° |
| 2026-04-22 23:36 | -27.51286 | -70.44238 | 35106 ft | 491 kts | 194° |
| 2026-04-22 23:37 | -27.58097 | -70.44874 | 35112 ft | 491 kts | 194° |
| 2026-04-22 23:37 | -27.64902 | -70.45513 | 35113 ft | 490 kts | 194° |
| 2026-04-22 23:38 | -27.71700 | -70.46158 | 35108 ft | 490 kts | 194° |
| 2026-04-22 23:38 | -27.78498 | -70.46801 | 35101 ft | 490 kts | 194° |
| 2026-04-22 23:39 | -27.85248 | -70.47441 | 35113 ft | 489 kts | 194° |
| 2026-04-22 23:39 | -27.92071 | -70.48091 | 35103 ft | 488 kts | 194° |
| 2026-04-22 23:40 | -27.98791 | -70.48729 | 35099 ft | 488 kts | 194° |
| 2026-04-22 23:40 | -28.05560 | -70.49373 | 35095 ft | 488 kts | 194° |
| 2026-04-22 23:41 | -28.12328 | -70.50014 | 35124 ft | 488 kts | 194° |
| 2026-04-22 23:41 | -28.19096 | -70.50657 | 35115 ft | 488 kts | 194° |
| 2026-04-22 23:42 | -28.25860 | -70.51302 | 35101 ft | 488 kts | 194° |
| 2026-04-22 23:42 | -28.32622 | -70.51948 | 35108 ft | 488 kts | 194° |
| 2026-04-22 23:43 | -28.39385 | -70.52591 | 35144 ft | 488 kts | 194° |
| 2026-04-22 23:43 | -28.46146 | -70.53236 | 35129 ft | 487 kts | 193° |
| 2026-04-22 23:44 | -28.52891 | -70.53882 | 35126 ft | 487 kts | 193° |
| 2026-04-22 23:44 | -28.59650 | -70.54516 | 35131 ft | 487 kts | 193° |
| 2026-04-22 23:45 | -28.66387 | -70.55134 | 35131 ft | 486 kts | 193° |
| 2026-04-22 23:45 | -28.73124 | -70.55761 | 35152 ft | 485 kts | 193° |
| 2026-04-22 23:46 | -28.79808 | -70.56392 | 35142 ft | 485 kts | 193° |
| 2026-04-22 23:46 | -28.86528 | -70.57029 | 35147 ft | 484 kts | 193° |
| 2026-04-22 23:47 | -28.93248 | -70.57664 | 35144 ft | 484 kts | 193° |
| 2026-04-22 23:47 | -28.99964 | -70.58305 | 35176 ft | 484 kts | 193° |
| 2026-04-22 23:48 | -29.06669 | -70.58955 | 35162 ft | 483 kts | 193° |
| 2026-04-22 23:48 | -29.13368 | -70.59610 | 35171 ft | 483 kts | 193° |
| 2026-04-22 23:49 | -29.20055 | -70.60263 | 35182 ft | 483 kts | 193° |
| 2026-04-22 23:49 | -29.26749 | -70.60901 | 35164 ft | 483 kts | 193° |
| 2026-04-22 23:50 | -29.33434 | -70.61554 | 35162 ft | 482 kts | 193° |
| 2026-04-22 23:50 | -29.40111 | -70.62211 | 35159 ft | 481 kts | 193° |
| 2026-04-22 23:51 | -29.46788 | -70.62859 | 35158 ft | 481 kts | 193° |
| 2026-04-22 23:51 | -29.53417 | -70.63501 | 35180 ft | 481 kts | 193° |
| 2026-04-22 23:52 | -29.60087 | -70.64156 | 35174 ft | 481 kts | 193° |
| 2026-04-22 23:52 | -29.66753 | -70.64810 | 35166 ft | 480 kts | 193° |
| 2026-04-22 23:53 | -29.73399 | -70.65462 | 35156 ft | 479 kts | 193° |
| 2026-04-22 23:53 | -29.80045 | -70.66110 | 35152 ft | 479 kts | 193° |
| 2026-04-22 23:54 | -29.86687 | -70.66760 | 35146 ft | 479 kts | 193° |
| 2026-04-22 23:54 | -29.93329 | -70.67414 | 35143 ft | 479 kts | 193° |
| 2026-04-22 23:55 | -29.99967 | -70.68065 | 35132 ft | 479 kts | 193° |
| 2026-04-22 23:55 | -30.06564 | -70.68713 | 35159 ft | 479 kts | 193° |
| 2026-04-22 23:56 | -30.13209 | -70.69374 | 35152 ft | 479 kts | 193° |
| 2026-04-22 23:56 | -30.19847 | -70.70033 | 35155 ft | 479 kts | 193° |
| 2026-04-22 23:57 | -30.26480 | -70.70679 | 35151 ft | 478 kts | 193° |
| 2026-04-22 23:57 | -30.31993 | -70.71229 | 35160 ft | 478 kts | 193° |
| 2026-04-22 23:58 | -30.38628 | -70.71892 | 35182 ft | 478 kts | 193° |
| 2026-04-22 23:58 | -30.45251 | -70.72554 | 35178 ft | 477 kts | 193° |
| 2026-04-22 23:59 | -30.51862 | -70.73208 | 35175 ft | 477 kts | 193° |
| 2026-04-22 23:59 | -30.58468 | -70.73869 | 35166 ft | 476 kts | 193° |
| 2026-04-23 00:00 | -30.68371 | -70.74837 | 35145 ft | 475 kts | 192° |
| 2026-04-23 00:01 | -30.74916 | -70.75467 | 35139 ft | 475 kts | 193° |
| 2026-04-23 00:01 | -30.81501 | -70.76107 | 35141 ft | 475 kts | 193° |
| 2026-04-23 00:02 | -30.88080 | -70.76747 | 35170 ft | 474 kts | 193° |
| 2026-04-23 00:02 | -30.94654 | -70.77380 | 35168 ft | 473 kts | 193° |
| 2026-04-23 00:03 | -31.01210 | -70.78015 | 35159 ft | 473 kts | 193° |
| 2026-04-23 00:03 | -31.07777 | -70.78666 | 35164 ft | 473 kts | 193° |
| 2026-04-23 00:04 | -31.14335 | -70.79310 | 35148 ft | 472 kts | 193° |
| 2026-04-23 00:04 | -31.20846 | -70.79948 | 35186 ft | 472 kts | 193° |
| 2026-04-23 00:05 | -31.27394 | -70.80588 | 35183 ft | 471 kts | 193° |
| 2026-04-23 00:05 | -31.33925 | -70.81229 | 35183 ft | 472 kts | 193° |
| 2026-04-23 00:06 | -31.40463 | -70.81876 | 35178 ft | 471 kts | 193° |
| 2026-04-23 00:06 | -31.43728 | -70.82198 | 34952 ft | 468 kts | 193° |
| 2026-04-23 00:06 | -31.46968 | -70.82511 | 33646 ft | 468 kts | 193° |
| 2026-04-23 00:06 | -31.50195 | -70.82826 | 33039 ft | 461 kts | 193° |
| 2026-04-23 00:07 | -31.53369 | -70.83131 | 32531 ft | 456 kts | 193° |
| 2026-04-23 00:07 | -31.56529 | -70.83438 | 31968 ft | 455 kts | 193° |
| 2026-04-23 00:07 | -31.59676 | -70.83750 | 31397 ft | 453 kts | 193° |
| 2026-04-23 00:07 | -31.62808 | -70.84061 | 30847 ft | 451 kts | 192° |
| 2026-04-23 00:08 | -31.65930 | -70.84373 | 30290 ft | 450 kts | 192° |
| 2026-04-23 00:08 | -31.69046 | -70.84683 | 29686 ft | 448 kts | 192° |
| 2026-04-23 00:08 | -31.72143 | -70.84990 | 29133 ft | 444 kts | 192° |
| 2026-04-23 00:08 | -31.75215 | -70.85260 | 28603 ft | 443 kts | 188° |
| 2026-04-23 00:09 | -31.78293 | -70.85203 | 28100 ft | 442 kts | 185° |
| 2026-04-23 00:09 | -31.81321 | -70.85098 | 27594 ft | 438 kts | 185° |
| 2026-04-23 00:09 | -31.84354 | -70.84984 | 27102 ft | 434 kts | 184° |
| 2026-04-23 00:09 | -31.87358 | -70.84868 | 26618 ft | 430 kts | 184° |
| 2026-04-23 00:10 | -31.90333 | -70.84755 | 26143 ft | 425 kts | 184° |
| 2026-04-23 00:10 | -31.93276 | -70.84644 | 25688 ft | 421 kts | 184° |
| 2026-04-23 00:10 | -31.96190 | -70.84539 | 25249 ft | 417 kts | 183° |
| 2026-04-23 00:10 | -31.99079 | -70.84437 | 24796 ft | 413 kts | 183° |
| 2026-04-23 00:11 | -32.01936 | -70.84337 | 24350 ft | 410 kts | 183° |
| 2026-04-23 00:11 | -32.04775 | -70.84240 | 23913 ft | 406 kts | 183° |
| 2026-04-23 00:11 | -32.07591 | -70.84142 | 23418 ft | 402 kts | 182° |
| 2026-04-23 00:11 | -32.10368 | -70.84043 | 22967 ft | 396 kts | 182° |
| 2026-04-23 00:12 | -32.13099 | -70.83942 | 22529 ft | 391 kts | 182° |
| 2026-04-23 00:12 | -32.15801 | -70.83842 | 22098 ft | 386 kts | 182° |
| 2026-04-23 00:12 | -32.18469 | -70.83747 | 21663 ft | 382 kts | 182° |
| 2026-04-23 00:12 | -32.21113 | -70.83655 | 21226 ft | 378 kts | 181° |
| 2026-04-23 00:13 | -32.23735 | -70.83564 | 20786 ft | 375 kts | 181° |
| 2026-04-23 00:13 | -32.26335 | -70.83473 | 20342 ft | 372 kts | 181° |
| 2026-04-23 00:13 | -32.28919 | -70.83382 | 19910 ft | 369 kts | 180° |
| 2026-04-23 00:13 | -32.31478 | -70.83291 | 19475 ft | 367 kts | 180° |
| 2026-04-23 00:14 | -32.34021 | -70.83202 | 19046 ft | 364 kts | 180° |
| 2026-04-23 00:14 | -32.36543 | -70.83113 | 18624 ft | 363 kts | 180° |
| 2026-04-23 00:14 | -32.39059 | -70.83023 | 18155 ft | 361 kts | 180° |
| 2026-04-23 00:14 | -32.41557 | -70.82932 | 17725 ft | 358 kts | 180° |
| 2026-04-23 00:15 | -32.44033 | -70.82843 | 17306 ft | 354 kts | 180° |
| 2026-04-23 00:15 | -32.46486 | -70.82754 | 16902 ft | 351 kts | 180° |
| 2026-04-23 00:15 | -32.48922 | -70.82664 | 16491 ft | 349 kts | 180° |
| 2026-04-23 00:15 | -32.51346 | -70.82575 | 16085 ft | 348 kts | 180° |
| 2026-04-23 00:16 | -32.53763 | -70.82489 | 15682 ft | 347 kts | 180° |
| 2026-04-23 00:16 | -32.56144 | -70.82405 | 15281 ft | 346 kts | 180° |
| 2026-04-23 00:16 | -32.58547 | -70.82317 | 14882 ft | 345 kts | 179° |
| 2026-04-23 00:16 | -32.60942 | -70.82230 | 14476 ft | 344 kts | 179° |
| 2026-04-23 00:17 | -32.63329 | -70.82143 | 14070 ft | 343 kts | 179° |
| 2026-04-23 00:17 | -32.65705 | -70.82056 | 13750 ft | 337 kts | 179° |
| 2026-04-23 00:17 | -32.68013 | -70.81969 | 13614 ft | 327 kts | 179° |
| 2026-04-23 00:17 | -32.70251 | -70.81884 | 13486 ft | 317 kts | 179° |
| 2026-04-23 00:18 | -32.72418 | -70.81802 | 13362 ft | 306 kts | 179° |
| 2026-04-23 00:18 | -32.74508 | -70.81727 | 13225 ft | 296 kts | 179° |
| 2026-04-23 00:18 | -32.76550 | -70.81657 | 12946 ft | 292 kts | 179° |
| 2026-04-23 00:18 | -32.78576 | -70.81589 | 12589 ft | 291 kts | 179° |
| 2026-04-23 00:19 | -32.80596 | -70.81522 | 12234 ft | 290 kts | 179° |
| 2026-04-23 00:19 | -32.82590 | -70.81451 | 12149 ft | 285 kts | 179° |
| 2026-04-23 00:19 | -32.84575 | -70.81380 | 12107 ft | 286 kts | 179° |
| 2026-04-23 00:19 | -32.86556 | -70.81309 | 11440 ft | 285 kts | 179° |
| 2026-04-23 00:20 | -32.88533 | -70.81239 | 10786 ft | 282 kts | 179° |
| 2026-04-23 00:20 | -32.90483 | -70.81169 | 10420 ft | 282 kts | 179° |
| 2026-04-23 00:20 | -32.92459 | -70.81198 | 9997 ft | 283 kts | 188° |
| 2026-04-23 00:20 | -32.94376 | -70.81492 | 9616 ft | 282 kts | 188° |
| 2026-04-23 00:21 | -32.96316 | -70.81785 | 9303 ft | 278 kts | 187° |
| 2026-04-23 00:21 | -32.98237 | -70.82073 | 8908 ft | 279 kts | 187° |
| 2026-04-23 00:21 | -33.00148 | -70.82350 | 8568 ft | 277 kts | 185° |
| 2026-04-23 00:21 | -33.02060 | -70.82306 | 8166 ft | 271 kts | 177° |
| 2026-04-23 00:22 | -33.03929 | -70.82197 | 7773 ft | 268 kts | 177° |
| 2026-04-23 00:22 | -33.05784 | -70.82097 | 7423 ft | 266 kts | 177° |
| 2026-04-23 00:22 | -33.07636 | -70.81987 | 7102 ft | 273 kts | 176° |
| 2026-04-23 00:22 | -33.09565 | -70.81852 | 6833 ft | 282 kts | 176° |
| 2026-04-23 00:23 | -33.11530 | -70.81739 | 6485 ft | 282 kts | 176° |
| 2026-04-23 00:23 | -33.13481 | -70.81638 | 6122 ft | 279 kts | 177° |
| 2026-04-23 00:23 | -33.15408 | -70.81537 | 5759 ft | 277 kts | 176° |
| 2026-04-23 00:23 | -33.17325 | -70.81434 | 5396 ft | 275 kts | 176° |
| 2026-04-23 00:24 | -33.19232 | -70.81333 | 5045 ft | 273 kts | 176° |
| 2026-04-23 00:24 | -33.21122 | -70.81232 | 4690 ft | 271 kts | 176° |
| 2026-04-23 00:24 | -33.22992 | -70.81132 | 4324 ft | 266 kts | 176° |
| 2026-04-23 00:24 | -33.24780 | -70.81037 | 3982 ft | 246 kts | 176° |
| 2026-04-23 00:25 | -33.26409 | -70.80950 | 3703 ft | 224 kts | 176° |
| 2026-04-23 00:25 | -33.27894 | -70.80871 | 3415 ft | 201 kts | 176° |
| 2026-04-23 00:25 | -33.29203 | -70.80801 | 3175 ft | 178 kts | 177° |
| 2026-04-23 00:25 | -33.30374 | -70.80738 | 2935 ft | 163 kts | 177° |
| 2026-04-23 00:26 | -33.31480 | -70.80678 | 2728 ft | 156 kts | 177° |
| 2026-04-23 00:26 | -33.32555 | -70.80620 | 2519 ft | 153 kts | 177° |
| 2026-04-23 00:26 | -33.33616 | -70.80563 | 2323 ft | 152 kts | 177° |
| 2026-04-23 00:26 | -33.34670 | -70.80507 | 2105 ft | 151 kts | 176° |
| 2026-04-23 00:27 | -33.35718 | -70.80451 | 1899 ft | 151 kts | 176° |
| 2026-04-23 00:27 | -33.36767 | -70.80398 | 1708 ft | 151 kts | 176° |
| 2026-04-23 00:27 | -33.37805 | -70.80345 | 1576 ft | 144 kts | 176° |
| 2026-04-23 00:27 | -33.38667 | -70.80291 | 1575 ft | 97 kts | 179° |
| 2026-04-23 00:28 | -33.39186 | -70.80262 | 1573 ft | 60 kts | 175° |
| 2026-04-23 00:28 | -33.39357 | -70.80174 | 1570 ft | 15 kts | 152° |
| 2026-04-23 00:28 | -33.39453 | -70.80108 | 1567 ft | 16 kts | 146° |
| 2026-04-23 00:28 | -33.39529 | -70.80011 | 1566 ft | 16 kts | 102° |
| 2026-04-23 00:29 | -33.39529 | -70.79891 | 1565 ft | 12 kts | 88° |
| 2026-04-23 00:29 | -33.39526 | -70.79793 | 1565 ft | 11 kts | 88° |
| 2026-04-23 00:29 | -33.39522 | -70.79706 | 1565 ft | 12 kts | 86° |
| 2026-04-23 00:29 | -33.39517 | -70.79591 | 1564 ft | 16 kts | 87° |
| 2026-04-23 00:30 | -33.39510 | -70.79438 | 1564 ft | 19 kts | 86° |
| 2026-04-23 00:30 | -33.39504 | -70.79295 | 1564 ft | 15 kts | 87° |
| 2026-04-23 00:30 | -33.39500 | -70.79185 | 1564 ft | 10 kts | 87° |
| 2026-04-23 00:30 | -33.39513 | -70.79163 | 1564 ft | 0 kts | 173° |
| 2026-04-23 00:31 | -33.39534 | -70.79158 | 1564 ft | 6 kts | 170° |
| 2026-04-23 00:31 | -33.39567 | -70.79154 | 1564 ft | 2 kts | 176° |
| 2026-04-23 00:31 | -33.39571 | -70.79154 | 1564 ft | 0 kts | 176° |